Time;durP1;ratioP1;P1;durP2;ratioP2;P2;SDS_P1;SDS_P2;PMS_P1;PMS_P2;Temp;Humidity;BMP_temperature;BMP_pressure;BME280_temperature;BME280_humidity;BME280_pressure;Samples;Min_cycle;Max_cycle;Signal;HPM_P1;HPM_P2
2022/06/10 00:00:05;;;;;;;7.23;6.90;;;;;;;;;;5113813;28;20189;-72
2022/06/10 00:02:31;;;;;;;6.10;5.93;;;;;;;13.08;100.00;65545.09;5114525;28;20568;-72
2022/06/10 00:04:58;;;;;;;13.43;7.70;;;;;;;;;;5114433;28;20227;-72
2022/06/10 00:07:27;;;;;;;6.97;6.60;;;;;;;;;;5114117;28;20242;-72
2022/06/10 00:09:53;;;;;;;6.43;6.07;;;;;;;;;;5113768;28;20235;-72
2022/06/10 00:12:19;;;;;;;6.17;5.87;;;;;;;12.90;100.00;65534.03;5113663;28;20712;-72
2022/06/10 00:14:46;;;;;;;6.43;6.20;;;;;;;12.90;100.00;65520.44;5114081;28;20181;-72
2022/06/10 00:17:13;;;;;;;6.23;5.97;;;;;;;12.87;100.00;65527.53;5114292;28;20189;-72
2022/06/10 00:19:39;;;;;;;6.83;6.63;;;;;;;12.87;100.00;65514.53;5114244;28;20169;-72
2022/06/10 00:22:06;;;;;;;7.40;6.77;;;;;;;12.86;100.00;65516.00;5113618;28;20208;-73
2022/06/10 00:24:32;;;;;;;6.53;6.13;;;;;;;;;;5114210;28;20170;-72
2022/06/10 00:26:59;;;;;;;9.00;6.30;;;;;;;12.67;100.00;65495.47;5114221;28;20227;-73
2022/06/10 00:29:25;;;;;;;6.53;6.33;;;;;;;;;;5095286;28;20736;-72
2022/06/10 00:31:51;;;;;;;6.17;5.97;;;;;;;;;;5113514;28;20208;-72
2022/06/10 00:34:19;;;;;;;7.57;7.23;;;;;;;;;;5113850;28;20651;-73
2022/06/10 00:36:45;;;;;;;6.57;6.43;;;;;;;;;;5113742;28;20199;-72
2022/06/10 00:39:12;;;;;;;6.83;6.63;;;;;;;12.55;100.00;65482.13;5113781;28;20184;-72
2022/06/10 00:41:44;;;;;;;6.50;5.93;;;;;;;12.52;100.00;65484.03;5113436;28;20644;-72
2022/06/10 00:44:37;;;;;;;6.90;6.33;;;;;;;12.51;100.00;65485.53;5113480;28;20193;-72
2022/06/10 00:47:13;;;;;;;6.17;5.77;;;;;;;12.54;100.00;65488.84;5114057;28;20230;-72
2022/06/10 00:49:40;;;;;;;6.80;6.40;;;;;;;;;;5113931;28;20192;-72
2022/06/10 00:52:14;;;;;;;7.63;7.23;;;;;;;;;;5113233;28;20228;-72
2022/06/10 00:54:44;;;;;;;6.80;6.40;;;;;;;12.51;100.00;65485.53;5113704;28;20612;-72
2022/06/10 00:57:23;;;;;;;7.70;7.40;;;;;;;12.45;100.00;65468.44;5113374;28;20177;-72
2022/06/10 00:59:52;;;;;;;6.37;6.17;;;;;;;12.41;100.00;65467.16;5113647;28;20170;-72
2022/06/10 01:02:22;;;;;;;7.53;6.97;;;;;;;12.40;100.00;65464.00;5113490;28;20241;-72
2022/06/10 01:04:49;;;;;;;7.37;7.07;;;;;;;12.40;100.00;65464.00;5113328;28;20222;-72
2022/06/10 01:07:24;;;;;;;6.33;6.23;;;;;;;12.40;100.00;65466.59;5095188;28;20214;-72
2022/06/10 01:09:51;;;;;;;17.60;7.13;;;;;;;12.41;100.00;65472.34;5113462;28;20189;-73
2022/06/10 01:12:31;;;;;;;7.57;7.27;;;;;;;12.40;100.00;65406.72;5113426;28;20216;-72
2022/06/10 01:15:22;;;;;;;8.57;6.63;;;;;;;12.42;100.00;65485.94;5113619;28;20173;-72
2022/06/10 01:18:18;;;;;;;6.27;6.17;;;;;;;12.43;100.00;65476.63;5113263;28;20193;-72
2022/06/10 01:20:57;;;;;;;7.20;6.90;;;;;;;12.43;100.00;65466.22;5113190;28;20229;-72
2022/06/10 01:23:42;;;;;;;6.83;6.50;;;;;;;;;;5117498;28;20173;-72
2022/06/10 01:26:11;;;;;;;7.10;7.00;;;;;;;;;;5116813;28;20208;-72
2022/06/10 01:28:56;;;;;;;7.47;7.23;;;;;;;;;;5117216;28;20651;-72
2022/06/10 01:31:27;;;;;;;6.77;6.60;;;;;;;12.37;100.00;65460.13;5116681;28;20240;-72
2022/06/10 01:34:04;;;;;;;6.80;6.60;;;;;;;;;;5116688;28;20176;-72
2022/06/10 01:36:53;;;;;;;6.40;6.30;;;;;;;12.29;100.00;65462.22;5117224;28;20587;-72
2022/06/10 01:39:47;;;;;;;7.53;6.97;;;;;;;12.31;100.00;65456.06;5116886;28;20174;-72
2022/06/10 01:42:35;;;;;;;6.70;6.43;;;;;;;12.30;100.00;65455.50;5117086;28;20267;-72
2022/06/10 01:45:17;;;;;;;6.57;6.17;;;;;;;12.29;100.00;65451.78;5116846;28;20201;-72
2022/06/10 01:47:54;;;;;;;7.03;6.73;;;;;;;12.28;100.00;65458.47;5116389;28;20636;-72
2022/06/10 01:50:41;;;;;;;9.10;8.37;;;;;;;12.31;100.00;65461.81;5116492;28;20674;-72
2022/06/10 01:53:14;;;;;;;13.43;8.17;;;;;;;12.13;100.00;65434.03;5116303;28;20173;-72
2022/06/10 01:55:45;;;;;;;7.17;6.57;;;;;;;;;;5116545;28;20201;-72
2022/06/10 01:58:14;;;;;;;7.60;7.03;;;;;;;11.99;100.00;65421.66;5116725;28;20189;-72
2022/06/10 02:00:44;;;;;;;7.67;7.00;;;;;;;11.94;100.00;65423.91;5116059;28;20209;-72
2022/06/10 02:03:27;;;;;;;6.80;6.50;;;;;;;11.93;100.00;65419.63;5116419;28;20234;-72
2022/06/10 02:06:28;;;;;;;7.70;7.20;;;;;;;11.92;100.00;65421.69;5116675;28;20212;-72
2022/06/10 02:09:03;;;;;;;8.00;7.50;;;;;;;;;;5116439;28;20207;-72
2022/06/10 02:11:30;;;;;;;7.73;7.60;;;;;;;;;;5116104;28;20232;-72
2022/06/10 02:14:16;;;;;;;7.13;6.60;;;;;;;11.91;100.00;65420.03;5116059;28;20255;-72
2022/06/10 02:16:46;;;;;;;7.50;7.20;;;;;;;11.83;100.00;65417.44;5116428;28;20178;-72
2022/06/10 02:19:24;;;;;;;8.40;7.83;;;;;;;11.83;100.00;65404.44;5115729;28;20238;-72
2022/06/10 02:21:57;;;;;;;7.67;7.27;;;;;;;;;;5115773;28;20318;-72
2022/06/10 02:24:26;;;;;;;8.87;8.00;;;;;;;11.87;100.00;65413.00;5115708;28;20197;-72
2022/06/10 02:26:59;;;;;;;8.40;7.97;;;;;;;11.87;100.00;65413.00;5115633;28;20188;-72
2022/06/10 02:29:29;;;;;;;7.93;7.37;;;;;;;;;;5115873;28;20204;-72
2022/06/10 02:31:58;;;;;;;7.27;6.80;;;;;;;11.86;100.00;65407.25;5115435;28;20714;-72
2022/06/10 02:34:27;;;;;;;8.10;7.63;;;;;;;11.88;100.00;65408.91;5115160;28;20234;-72
2022/06/10 02:37:12;;;;;;;8.00;7.60;;;;;;;11.84;100.00;65405.56;5115716;28;20188;-72
2022/06/10 02:40:16;;;;;;;7.93;7.40;;;;;;;11.84;100.00;65410.75;5115398;28;20205;-72
2022/06/10 02:43:01;;;;;;;6.90;6.67;;;;;;;11.79;100.00;65340.19;5115916;28;20531;-72
2022/06/10 02:45:28;;;;;;;6.73;6.53;;;;;;;;;;5115834;28;20181;-72
2022/06/10 02:48:08;;;;;;;7.10;6.90;;;;;;;11.70;100.00;65399.84;5115130;28;20201;-72
2022/06/10 02:50:38;;;;;;;7.30;7.00;;;;;;;11.67;100.00;65386.13;5115092;28;20229;-72
2022/06/10 02:53:07;;;;;;;7.30;6.93;;;;;;;11.67;100.00;65394.47;5115425;28;20169;-72
2022/06/10 02:55:34;;;;;;;8.70;8.03;;;;;;;11.71;100.00;65391.09;5115351;28;20192;-72
2022/06/10 03:01:12;;;;;;;8.17;7.67;;;;;;;11.70;100.00;65397.81;5114938;28;20197;-72
2022/06/10 03:03:57;;;;;;;10.10;9.27;;;;;;;;;;5114893;28;20189;-72
2022/06/10 03:06:42;;;;;;;10.33;9.80;;;;;;;11.68;100.00;65387.78;5115145;28;20257;-72
2022/06/10 03:09:12;;;;;;;10.27;9.53;;;;;;;;;;5115099;28;20201;-72
2022/06/10 03:11:54;;;;;;;9.53;8.93;;;;;;;;;;5114596;28;20247;-72
2022/06/10 03:14:41;;;;;;;8.63;8.33;;;;;;;11.67;100.00;65386.69;5114965;28;20173;-72
2022/06/10 03:17:46;;;;;;;11.20;10.33;;;;;;;11.72;100.00;65392.25;5115225;28;20177;-72
2022/06/10 03:20:32;;;;;;;8.60;8.20;;;;;;;11.67;100.00;65384.09;5101584;28;20558;-72
2022/06/10 03:22:58;;;;;;;9.30;8.63;;;;;;;;;;5115080;28;20180;-72
2022/06/10 03:25:53;;;;;;;9.27;8.37;;;;;;;11.63;100.00;65389.47;5115025;28;20231;-72
2022/06/10 03:28:44;;;;;;;8.63;8.13;;;;;;;11.61;100.00;65387.81;5114716;28;20173;-72
2022/06/10 03:31:42;;;;;;;8.63;8.20;;;;;;;11.58;100.00;65381.91;5114546;28;20241;-72
2022/06/10 03:34:08;;;;;;;8.27;7.80;;;;;;;;;;5114734;28;20666;-72
2022/06/10 03:36:35;;;;;;;8.83;8.27;;;;;;;11.51;100.00;65366.34;5114746;28;20656;-72
2022/06/10 03:39:06;;;;;;;9.63;9.03;;;;;;;11.53;100.00;65371.16;5114218;28;20189;-72
2022/06/10 03:41:36;;;;;;;13.87;10.03;;;;;;;11.55;100.00;65381.72;5114460;28;20744;-72
2022/06/10 03:44:09;;;;;;;9.87;9.33;;;;;;;11.54;100.00;65372.81;5114440;28;20196;-72
2022/06/10 03:46:36;;;;;;;10.50;9.77;;;;;;;;;;5113496;28;20181;-72
2022/06/10 03:49:09;;;;;;;9.20;8.60;;;;;;;11.50;100.00;65308.03;5114602;28;20277;-72
2022/06/10 03:51:36;;;;;;;11.20;10.03;;;;;;;;;;5113822;28;20247;-72
2022/06/10 03:54:03;;;;;;;9.53;8.97;;;;;;;;;;5114572;28;20185;-72
2022/06/10 03:56:31;;;;;;;10.80;9.80;;;;;;;11.58;100.00;65377.25;5113976;28;20193;-72
2022/06/10 03:58:58;;;;;;;10.87;9.83;;;;;;;11.65;100.00;65391.72;5113989;28;20659;-72
2022/06/10 04:01:24;;;;;;;11.07;10.03;;;;;;;;;;5113899;28;20572;-73
2022/06/10 04:03:51;;;;;;;10.57;9.50;;;;;;;11.63;100.00;65382.25;5113863;28;20209;-73
2022/06/10 04:06:17;;;;;;;8.93;8.47;;;;;;;;;;5114167;28;20246;-73
2022/06/10 04:09:04;;;;;;;9.43;8.80;;;;;;;;;;5113898;28;20654;-73
2022/06/10 04:11:32;;;;;;;9.90;9.43;;;;;;;11.70;100.00;65329.66;5114511;28;20236;-73
2022/06/10 04:13:58;;;;;;;10.33;9.47;;;;;;;;;;5114076;28;20185;-73
2022/06/10 04:16:27;;;;;;;9.17;8.57;;;;;;;11.75;100.00;65392.97;5113899;28;20205;-73
2022/06/10 04:18:53;;;;;;;8.03;7.50;;;;;;;;;;5114000;28;20651;-73
2022/06/10 04:21:20;;;;;;;8.83;8.23;;;;;;;11.93;100.00;65415.00;5113638;28;20241;-72
2022/06/10 04:23:46;;;;;;;8.73;7.90;;;;;;;;;;5113687;28;20189;-72
2022/06/10 04:26:13;;;;;;;8.00;7.50;;;;;;;12.02;100.00;65430.19;5113892;28;20217;-72
2022/06/10 04:28:39;;;;;;;8.30;7.53;;;;;;;12.06;100.00;65437.22;5113721;28;20189;-73
2022/06/10 04:31:05;;;;;;;8.43;7.80;;;;;;;;;;5114009;28;20322;-73
2022/06/10 04:33:34;;;;;;;8.50;8.10;;;;;;;12.15;100.00;65443.50;5095504;28;20254;-73
2022/06/10 04:36:01;;;;;;;8.00;7.60;;;;;;;12.21;100.00;65445.50;5113531;28;20193;-73
2022/06/10 04:38:27;;;;;;;7.97;7.37;;;;;;;12.27;100.00;65459.41;5113529;28;20670;-73
2022/06/10 04:40:54;;;;;;;8.50;7.70;;;;;;;12.38;100.00;65464.38;5113374;28;20232;-73
2022/06/10 04:43:20;;;;;;;9.63;8.77;;;;;;;12.48;100.00;65474.91;5114276;28;20517;-74
2022/06/10 04:45:49;;;;;;;7.80;7.10;;;;;;;;;;5114012;28;20209;-74
2022/06/10 04:48:16;;;;;;;17.00;7.10;;;;;;;;;;5113890;28;20215;-74
2022/06/10 04:50:43;;;;;;;8.57;7.77;;;;;;;12.79;100.00;65513.44;5113426;28;20232;-73
2022/06/10 04:53:10;;;;;;;13.60;6.93;;;;;;;12.80;100.00;65507.31;5113437;28;20230;-73
2022/06/10 04:55:37;;;;;;;9.00;8.10;;;;;;;;;;5113328;28;20189;-73
2022/06/10 04:58:04;;;;;;;20.13;7.30;;;;;;;12.98;100.00;65528.78;5116629;28;20235;-73
2022/06/10 05:00:37;;;;;;;6.13;5.90;;;;;;;13.05;100.00;65536.56;5117207;28;20209;-73
2022/06/10 05:03:04;;;;;;;6.37;6.17;;;;;;;13.15;100.00;65548.22;5117501;28;20265;-73
2022/06/10 05:05:32;;;;;;;8.07;5.40;;;;;;;13.22;100.00;65555.47;5117737;28;20212;-73
2022/06/10 05:07:59;;;;;;;6.43;5.93;;;;;;;13.37;100.00;65568.97;5117696;28;20181;-73
2022/06/10 05:10:25;;;;;;;6.97;5.37;;;;;;;;;;5098738;28;20209;-73
2022/06/10 05:12:52;;;;;;;5.37;5.27;;;;;;;13.65;100.00;65602.69;5116921;28;20189;-73
2022/06/10 05:15:20;;;;;;;5.23;4.77;;;;;;;13.74;100.00;65612.13;5117012;28;20196;-73
2022/06/10 05:17:47;;;;;;;7.87;5.13;;;;;;;;;;5117252;28;20222;-73
2022/06/10 05:20:18;;;;;;;5.60;5.17;;;;;;;13.83;100.00;65618.97;5116852;28;20612;-73
2022/06/10 05:22:45;;;;;;;5.13;4.73;;;;;;;;;;5117198;28;20223;-73
2022/06/10 05:25:11;;;;;;;4.80;4.57;;;;;;;;;;5116819;28;20220;-73
2022/06/10 05:27:38;;;;;;;4.57;4.37;;;;;;;;;;5116670;28;20721;-73
2022/06/10 05:30:06;;;;;;;5.10;4.77;;;;;;;14.33;100.00;65676.59;5116657;28;20185;-73
2022/06/10 05:32:33;;;;;;;6.33;4.80;;;;;;;14.46;100.00;65688.47;5116599;28;20575;-73
2022/06/10 05:34:59;;;;;;;4.50;4.40;;;;;;;;;;5116847;28;20212;-73
2022/06/10 05:37:26;;;;;;;4.60;4.30;;;;;;;14.42;100.00;65683.44;5116721;28;20605;-73
2022/06/10 05:39:53;;;;;;;4.20;3.90;;;;;;;;;;5116517;28;20596;-73
2022/06/10 05:42:20;;;;;;;5.53;4.90;;;;;;;14.43;100.00;65687.16;5116641;28;20237;-73
2022/06/10 05:44:49;;;;;;;4.07;3.73;;;;;;;14.46;100.00;65688.47;5098302;28;20188;-74
2022/06/10 05:47:19;;;;;;;4.00;3.70;;;;;;;14.44;100.00;65688.84;5116599;28;20677;-74
2022/06/10 05:49:49;;;;;;;3.93;3.70;;;;;;;14.48;100.00;65698.53;5116964;28;20200;-73
2022/06/10 05:52:19;;;;;;;4.20;4.00;;;;;;;14.49;100.00;65702.25;5116020;28;20270;-73
2022/06/10 05:54:47;;;;;;;4.30;3.97;;;;;;;14.51;100.00;65694.03;5116189;28;20190;-73
2022/06/10 05:57:14;;;;;;;4.00;3.63;;;;;;;;;;5116781;28;20217;-73
2022/06/10 05:59:41;;;;;;;7.73;5.07;;;;;;;14.54;100.00;65704.66;5116177;28;20220;-73
2022/06/10 06:02:09;;;;;;;7.93;4.07;;;;;;;;;;5116643;28;20232;-73
2022/06/10 06:04:36;;;;;;;6.27;3.97;;;;;;;14.63;100.00;65706.81;5116083;28;20193;-73
2022/06/10 06:07:03;;;;;;;4.10;3.93;;;;;;;14.62;100.00;65707.75;5116063;28;20243;-73
2022/06/10 06:09:30;;;;;;;8.27;4.03;;;;;;;14.69;100.00;65721.31;5114989;28;20247;-74
2022/06/10 06:11:57;;;;;;;6.27;3.90;;;;;;;14.73;100.00;65725.22;5115823;28;20686;-73
2022/06/10 06:14:27;;;;;;;8.77;3.57;;;;;;;14.79;100.00;65724.06;5116185;28;20211;-73
2022/06/10 06:16:55;;;;;;;6.97;3.90;;;;;;;;;;5115845;28;20253;-73
2022/06/10 06:19:21;;;;;;;7.03;4.13;;;;;;;;;;5115746;28;20553;-73
2022/06/10 06:21:48;;;;;;;4.80;3.63;;;;;;;;;;5115715;28;20209;-73
2022/06/10 06:24:15;;;;;;;3.90;3.60;;;;;;;14.84;100.00;65729.63;5116057;28;20205;-74
2022/06/10 06:26:41;;;;;;;8.80;3.67;;;;;;;14.84;100.00;65742.69;5115928;28;20521;-74
2022/06/10 06:29:08;;;;;;;3.87;3.67;;;;;;;;;;5115655;28;20254;-74
2022/06/10 06:31:35;;;;;;;5.10;4.80;;;;;;;14.87;100.00;65732.97;5115508;28;20240;-73
2022/06/10 06:34:01;;;;;;;6.20;3.67;;;;;;;;;;5115501;28;20185;-73
2022/06/10 06:36:42;;;;;;;4.13;3.93;;;;;;;14.99;100.00;65756.75;5115501;28;20188;-73
2022/06/10 06:39:08;;;;;;;4.40;3.33;;;;;;;15.01;100.00;65748.53;5116004;28;20225;-74
2022/06/10 06:41:35;;;;;;;6.10;4.57;;;;;;;;;;5115336;28;20236;-73
2022/06/10 06:44:04;;;;;;;3.93;3.63;;;;;;;15.06;100.00;65754.09;5096988;28;20200;-73
2022/06/10 06:46:34;;;;;;;3.73;3.40;;;;;;;15.06;100.00;65756.72;5115130;28;20277;-73
2022/06/10 06:49:01;;;;;;;7.73;3.73;;;;;;;;;;5115161;28;20219;-73
2022/06/10 06:51:28;;;;;;;3.47;3.37;;;;;;;;;;5114846;28;20624;-73
2022/06/10 06:53:54;;;;;;;3.50;3.27;;;;;;;15.23;100.00;65771.91;5115941;28;20593;-73
2022/06/10 06:56:21;;;;;;;4.50;3.43;;;;;;;15.22;100.00;65771.34;5115039;28;20209;-74
2022/06/10 06:58:47;;;;;;;3.33;3.17;;;;;;;15.27;100.00;65776.34;5115026;28;20200;-73
2022/06/10 07:01:14;;;;;;;9.93;4.37;;;;;;;15.30;100.00;65782.31;5115055;28;20694;-73
2022/06/10 07:03:40;;;;;;;3.40;3.07;;;;;;;;;;5115431;28;20238;-73
2022/06/10 07:06:07;;;;;;;3.20;3.10;;;;;;;15.36;100.00;65789.56;5115175;28;20178;-73
2022/06/10 07:08:33;;;;;;;3.57;3.37;;;;;;;;;;5114813;28;20239;-73
2022/06/10 07:11:02;;;;;;;5.13;2.77;;;;;;;15.39;100.00;65789.72;5114661;28;20273;-73
2022/06/10 07:13:29;;;;;;;3.67;2.80;;;;;;;15.37;100.00;65706.97;5114728;28;20189;-73
2022/06/10 07:15:57;;;;;;;3.47;3.07;;;;;;;15.44;100.00;65805.75;5115274;28;20596;-74
2022/06/10 07:18:24;;;;;;;7.70;3.30;;;;;;;;;;5114905;28;20234;-74
2022/06/10 07:20:50;;;;;;;7.17;3.20;;;;;;;;;;5114642;28;20296;-74
2022/06/10 07:23:17;;;;;;;4.20;3.03;;;;;;;;;;5115111;28;20224;-74
2022/06/10 07:25:43;;;;;;;6.20;3.27;;;;;;;15.60;100.00;65815.69;5096626;28;20185;-74
2022/06/10 07:28:11;;;;;;;5.40;3.43;;;;;;;15.68;100.00;65831.94;5114433;28;20221;-74
2022/06/10 07:30:39;;;;;;;4.20;3.40;;;;;;;15.68;100.00;65824.06;5114360;28;20201;-73
2022/06/10 07:33:06;;;;;;;2.93;2.70;;;;;;;;;;5114686;28;20269;-73
2022/06/10 07:35:34;;;;;;;3.50;3.30;;;;;;;;;;5114596;28;20187;-73
2022/06/10 07:38:06;;;;;;;7.07;3.47;;;;;;;15.78;100.00;65834.63;5115474;28;20201;-74
2022/06/10 07:43:36;;;;;;;8.57;3.20;;;;;;;15.90;100.00;65848.00;5115038;28;20180;-74
2022/06/10 07:46:04;;;;;;;8.97;3.63;;;;;;;15.83;100.00;65837.59;5114342;28;20193;-73
2022/06/10 07:48:33;;;;;;;3.43;3.20;;;;;;;15.88;100.00;65843.16;5114582;28;20193;-73
2022/06/10 07:50:59;;;;;;;3.80;3.57;;;;;;;15.95;100.00;65853.59;5113888;28;20245;-73
2022/06/10 07:53:29;;;;;;;3.70;3.23;;;;;;;15.93;100.00;65848.72;5114415;28;20170;-73
2022/06/10 07:55:56;;;;;;;2.90;2.80;;;;;;;;;;5114332;28;20570;-73
2022/06/10 07:58:24;;;;;;;3.20;2.93;;;;;;;16.02;100.00;65866.63;5114281;28;20272;-73
2022/06/10 08:00:51;;;;;;;4.57;3.47;;;;;;;16.12;100.00;65869.34;5113868;28;20249;-73
2022/06/10 08:03:19;;;;;;;4.33;3.50;;;;;;;16.17;100.00;65874.91;5114143;28;20220;-73
2022/06/10 08:05:46;;;;;;;10.83;3.50;;;;;;;16.39;100.00;65909.88;5114148;28;20185;-73
2022/06/10 08:08:16;;;;;;;5.50;3.20;;;;;;;;;;5114047;28;20216;-73
2022/06/10 08:10:43;;;;;;;6.30;3.80;;;;;;;16.57;100.00;65926.19;5113729;28;20236;-73
2022/06/10 08:13:10;;;;;;;2.70;2.70;;;;;;;;;;5113719;28;20204;-73
2022/06/10 08:15:37;;;;;;;3.67;3.37;;;;;;;16.73;100.00;65936.75;5113777;28;20297;-73
2022/06/10 08:18:05;;;;;;;3.30;3.10;;;;;;;16.83;100.00;65946.78;5114038;28;20230;-74
2022/06/10 08:23:24;;;;;;;12.10;4.20;;;;;;;;;;5113717;28;20197;-73
2022/06/10 08:25:52;;;;;;;4.33;3.50;;;;;;;17.32;100.00;66004.03;5113651;28;20655;-73
2022/06/10 08:28:19;;;;;;;3.13;2.93;;;;;;;;;;5113548;28;20239;-74
2022/06/10 08:30:45;;;;;;;8.30;3.13;;;;;;;17.15;96.57;65982.47;5112953;28;20204;-71
2022/06/10 08:33:11;;;;;;;9.17;3.60;;;;;;;;;;5115889;28;20213;-73
2022/06/10 08:35:38;;;;;;;3.43;2.87;;;;;;;17.36;97.65;65947.00;5113655;28;20228;-74
2022/06/10 08:38:06;;;;;;;5.30;3.27;;;;;;;;;;5116153;28;20246;-73
2022/06/10 08:40:39;;;;;;;3.97;3.63;;;;;;;;;;5114043;28;20212;-74
2022/06/10 08:43:33;;;;;;;4.77;2.70;;;;;;;17.45;97.30;66027.91;5110325;28;20224;-73
2022/06/10 08:46:11;;;;;;;5.70;3.07;;;;;;;17.44;97.33;66013.69;5100721;28;20242;-74
2022/06/10 08:48:55;;;;;;;3.30;3.00;;;;;;;17.46;96.47;66015.91;5104255;28;20620;-73
2022/06/10 08:51:44;;;;;;;20.83;3.30;;;;;;;17.50;96.79;66022.97;5108323;28;20774;-73
2022/06/10 08:54:21;;;;;;;4.73;3.10;;;;;;;17.54;98.15;66022.75;5117106;28;20197;-73
2022/06/10 08:56:53;;;;;;;3.87;3.70;;;;;;;17.45;95.62;66017.97;5116654;28;20633;-74
2022/06/10 08:59:35;;;;;;;14.57;3.70;;;;;;;17.49;95.06;66019.78;5117764;28;20630;-73
2022/06/10 09:02:33;;;;;;;4.00;3.27;;;;;;;17.57;94.98;66028.16;5116007;28;20204;-73
2022/06/10 09:05:14;;;;;;;2.63;2.43;;;;;;;17.53;96.73;66021.06;5111218;28;20193;-73
2022/06/10 09:07:43;;;;;;;3.13;2.90;;;;;;;;;;5109680;28;20196;-73
2022/06/10 09:10:21;;;;;;;7.23;3.33;;;;;;;;;;5109411;28;20276;-71
2022/06/10 09:13:06;;;;;;;5.37;3.27;;;;;;;17.52;98.64;66022.59;5113612;28;20204;-73
2022/06/10 09:15:39;;;;;;;13.20;3.37;;;;;;;17.52;96.48;66025.22;5108419;28;20276;-73
2022/06/10 09:18:14;;;;;;;3.80;3.10;;;;;;;;;;5109910;28;20193;-73
2022/06/10 09:21:00;;;;;;;10.87;4.43;;;;;;;17.53;97.94;66026.31;5113474;28;20237;-72
2022/06/10 09:23:44;;;;;;;4.23;3.60;;;;;;;17.70;99.86;66050.53;5112669;28;20230;-74
2022/06/10 09:26:26;;;;;;;10.23;3.63;;;;;;;17.57;97.80;66028.16;5109785;28;20231;-73
2022/06/10 09:28:54;;;;;;;6.63;3.73;;;;;;;17.49;100.00;66019.78;5109217;28;20253;-72
2022/06/10 09:31:41;;;;;;;9.37;3.87;;;;;;;17.33;100.00;66002.50;5109876;28;20250;-73
2022/06/10 09:34:19;;;;;;;4.37;4.03;;;;;;;;;;5110014;28;20819;-73
2022/06/10 09:37:06;;;;;;;6.27;2.83;;;;;;;17.47;100.00;66017.00;5114109;28;20242;-74
2022/06/10 09:42:58;;;;;;;2.10;1.63;;;;;;;17.42;99.66;66011.44;5110018;28;20185;-72
2022/06/10 09:45:45;;;;;;;1.33;1.33;;;;;;;17.29;99.83;65998.06;5095826;28;20193;-73
2022/06/10 09:48:33;;;;;;;8.73;2.60;;;;;;;17.28;100.00;65999.00;5114530;28;20217;-72
2022/06/10 09:51:14;;;;;;;2.80;1.60;;;;;;;17.41;100.00;66013.50;5115202;28;20274;-73
2022/06/10 09:54:02;;;;;;;1.73;1.63;;;;;;;17.42;100.00;66011.44;5114259;28;21412;-73
2022/06/10 09:57:04;;;;;;;7.10;1.93;;;;;;;17.46;99.71;66018.53;5115058;28;20197;-73
2022/06/10 09:59:36;;;;;;;2.30;2.20;;;;;;;17.48;98.56;66026.56;5114301;28;20188;-73
2022/06/10 10:02:17;;;;;;;4.00;1.67;;;;;;;17.41;99.02;66012.94;5114020;28;20777;-72
2022/06/10 10:05:04;;;;;;;1.90;1.90;;;;;;;17.50;100.00;66020.34;5112337;28;20223;-73
2022/06/10 10:07:42;;;;;;;4.03;1.60;;;;;;;17.58;99.14;66029.84;5113789;28;20197;-73
2022/06/10 10:10:44;;;;;;;3.70;1.47;;;;;;;17.59;98.75;65970.03;5114859;28;20255;-72
2022/06/10 10:13:23;;;;;;;4.73;1.57;;;;;;;;;;5106031;28;20619;-73
2022/06/10 10:15:52;;;;;;;3.90;1.23;;;;;;;;;;5114727;28;20708;-72
2022/06/10 10:18:33;;;;;;;1.47;1.47;;;;;;;17.79;99.85;65992.34;5113065;28;20193;-73
2022/06/10 10:21:03;;;;;;;1.33;1.33;;;;;;;;;;5115945;28;20240;-73
2022/06/10 10:23:32;;;;;;;3.67;1.20;;;;;;;;;;5114001;28;20182;-72
2022/06/10 10:25:59;;;;;;;2.73;1.30;;;;;;;18.10;98.42;66086.19;5115666;28;20251;-73
2022/06/10 10:28:29;;;;;;;2.50;1.70;;;;;;;;;;5113798;28;20193;-72
2022/06/10 10:31:22;;;;;;;1.60;1.60;;;;;;;18.48;98.75;66128.03;5112858;28;20217;-72
2022/06/10 10:33:55;;;;;;;4.40;1.30;;;;;;;18.62;100.00;66143.09;5093065;28;20337;-72
2022/06/10 10:36:28;;;;;;;1.40;1.40;;;;;;;18.71;99.21;66155.78;5113618;28;20281;-73
2022/06/10 10:38:54;;;;;;;9.00;1.20;;;;;;;;;;5115657;28;20189;-72
2022/06/10 10:41:34;;;;;;;2.60;1.30;;;;;;;18.66;95.24;66150.22;5114767;28;20217;-73
2022/06/10 10:44:25;;;;;;;1.20;1.20;;;;;;;18.61;92.81;66144.59;5114121;28;20216;-73
2022/06/10 10:47:09;;;;;;;4.90;1.20;;;;;;;18.66;93.38;66147.59;5107906;28;20185;-73
2022/06/10 10:49:42;;;;;;;1.40;1.33;;;;;;;18.72;94.29;66156.91;5112122;28;20201;-72
2022/06/10 10:52:12;;;;;;;6.67;1.37;;;;;;;;;;5111900;28;20224;-72
2022/06/10 10:54:42;;;;;;;1.30;1.30;;;;;;;18.71;91.66;66161.03;5110531;28;20229;-72
2022/06/10 10:57:21;;;;;;;1.20;1.20;;;;;;;18.82;92.29;66172.78;5113321;28;20229;-72
2022/06/10 10:59:58;;;;;;;2.87;1.30;;;;;;;18.96;93.72;66183.69;5110037;28;20605;-73
2022/06/10 11:02:41;;;;;;;1.57;1.57;;;;;;;19.03;91.80;66190.41;5108248;28;20189;-72
2022/06/10 11:05:36;;;;;;;3.90;1.70;;;;;;;19.15;86.98;66201.19;5107478;28;20659;-73
2022/06/10 11:08:17;;;;;;;3.63;1.60;;;;;;;19.23;90.37;66210.66;5110336;28;20518;-74
2022/06/10 11:11:00;;;;;;;5.23;2.10;;;;;;;19.41;91.47;66232.81;5105819;28;20351;-73
2022/06/10 11:13:58;;;;;;;1.47;1.47;;;;;;;19.60;88.32;66250.34;5112994;28;20543;-72
2022/06/10 11:16:27;;;;;;;3.80;2.27;;;;;;;19.63;87.53;66256.88;5115308;28;20533;-73
2022/06/10 11:18:56;;;;;;;2.80;2.67;;;;;;;;;;5113411;28;20673;-73
2022/06/10 11:21:27;;;;;;;9.43;2.03;;;;;;;19.68;87.32;66259.25;5113753;28;20304;-73
2022/06/10 11:23:56;;;;;;;10.97;2.13;;;;;;;19.65;85.12;66255.94;5108923;28;20588;-72
2022/06/10 11:26:25;;;;;;;1.60;1.50;;;;;;;19.84;87.13;66279.78;5113037;28;20185;-73
2022/06/10 11:29:00;;;;;;;3.10;1.93;;;;;;;19.92;86.84;66285.50;5111133;28;20731;-73
2022/06/10 11:31:38;;;;;;;1.80;1.70;;;;;;;19.91;89.04;66284.41;5099525;28;20212;-73
2022/06/10 11:34:16;;;;;;;15.93;1.83;;;;;;;19.91;84.41;66287.59;5114445;28;20246;-74
2022/06/10 11:36:52;;;;;;;4.20;1.60;;;;;;;19.89;86.08;66282.16;5113427;28;20184;-73
2022/06/10 11:39:23;;;;;;;1.53;1.53;;;;;;;;;;5114406;28;20177;-73
2022/06/10 11:42:25;;;;;;;2.10;2.00;;;;;;;20.04;87.85;66299.47;5113915;28;20220;-73
2022/06/10 11:45:11;;;;;;;1.70;1.60;;;;;;;20.15;84.85;66311.22;5082360;28;20197;-72
2022/06/10 11:47:47;;;;;;;2.60;2.13;;;;;;;20.02;83.77;66299.34;5114425;28;20173;-72
2022/06/10 11:50:25;;;;;;;1.97;1.93;;;;;;;19.99;84.89;66293.88;5114841;28;20173;-73
2022/06/10 11:53:01;;;;;;;2.13;1.80;;;;;;;;;;5114187;28;20213;-73
2022/06/10 11:55:29;;;;;;;5.63;1.80;;;;;;;;;;5114402;28;20169;-73
2022/06/10 12:01:13;;;;;;;2.57;2.17;;;;;;;;;;5114218;28;20209;-73
2022/06/10 12:03:46;;;;;;;2.77;1.87;;;;;;;;;;5114229;28;20646;-73
2022/06/10 12:06:22;;;;;;;2.00;1.90;;;;;;;;;;5113391;28;20181;-73
2022/06/10 12:08:52;;;;;;;1.67;1.67;;;;;;;20.38;85.11;66339.00;5113855;28;20258;-73
2022/06/10 12:11:18;;;;;;;3.83;1.60;;;;;;;;;;5114241;28;20243;-73
2022/06/10 12:13:49;;;;;;;1.90;1.80;;;;;;;;;;5113628;28;20205;-74
2022/06/10 12:16:16;;;;;;;2.07;1.97;;;;;;;20.61;84.43;66362.09;5113679;28;20174;-73
2022/06/10 12:18:49;;;;;;;2.03;1.93;;;;;;;20.60;85.11;66361.00;5109614;28;20279;-73
2022/06/10 12:21:22;;;;;;;2.83;1.80;;;;;;;20.53;84.00;66355.25;5101450;28;20217;-73
2022/06/10 12:23:48;;;;;;;1.60;1.50;;;;;;;20.59;82.67;66362.50;5112162;28;20631;-73
2022/06/10 12:27:01;;;;;;;2.00;2.00;;;;;;;20.57;85.04;66357.06;5113685;28;20189;-73
2022/06/10 12:30:02;;;;;;;2.33;2.23;;;;;;;20.59;84.19;66359.31;5036065;28;20597;-73
2022/06/10 12:33:04;;;;;;;1.90;1.80;;;;;;;20.61;84.60;66361.53;5113538;28;20209;-73
2022/06/10 12:35:36;;;;;;;2.03;1.93;;;;;;;20.64;85.03;66364.34;5113855;28;20569;-73
2022/06/10 12:38:14;;;;;;;2.00;1.90;;;;;;;20.64;82.23;66366.97;5114051;28;20180;-72
2022/06/10 12:40:46;;;;;;;2.83;2.30;;;;;;;20.75;82.37;66379.28;5113435;28;20213;-73
2022/06/10 12:43:20;;;;;;;1.90;1.90;;;;;;;20.75;83.18;66376.63;5114115;28;20605;-74
2022/06/10 12:45:51;;;;;;;6.53;2.00;;;;;;;20.68;82.20;66368.81;5113762;28;20183;-73
2022/06/10 12:48:28;;;;;;;3.83;1.97;;;;;;;;;;5113985;28;20729;-73
2022/06/10 12:51:01;;;;;;;2.40;2.20;;;;;;;20.69;81.37;66369.94;5113545;28;20205;-73
2022/06/10 12:53:28;;;;;;;2.37;2.27;;;;;;;;;;5096204;28;20205;-73
2022/06/10 12:55:58;;;;;;;2.30;2.27;;;;;;;;;;5113384;28;20219;-73
2022/06/10 12:58:39;;;;;;;2.70;2.53;;;;;;;;;;5113728;28;20166;-73
2022/06/10 13:01:40;;;;;;;6.90;2.40;;;;;;;20.83;84.44;66388.78;5113446;28;20209;-74
2022/06/10 13:04:21;;;;;;;2.30;2.20;;;;;;;20.88;82.59;66333.69;5113557;28;20615;-74